Time;durP1;ratioP1;P1;durP2;ratioP2;P2;SDS_P1;SDS_P2;PMS_P1;PMS_P2;Temp;Humidity;BMP_temperature;BMP_pressure;BME280_temperature;BME280_humidity;BME280_pressure;Samples;Min_cycle;Max_cycle;Signal;HPM_P1;HPM_P2
2024/01/15 00:00:16;;;;;;;0.50;0.50;;;;;;;-0.38;98.00;97091.09;5107358;28;20043;-66
2024/01/15 00:02:41;;;;;;;0.50;0.50;;;;;;;-0.41;98.01;97093.69;5108558;28;20031;-67
2024/01/15 00:05:07;;;;;;;0.50;0.50;;;;;;;-0.43;97.87;97087.81;5108622;28;20066;-67
2024/01/15 00:07:32;;;;;;;0.57;0.57;;;;;;;-0.47;98.20;97068.31;5108627;28;20020;-68
2024/01/15 00:09:57;;;;;;;0.50;0.50;;;;;;;-0.47;98.14;97081.06;5108486;28;20032;-67
2024/01/15 00:12:23;;;;;;;0.85;0.85;;;;;;;-0.41;97.97;97086.91;5108294;28;20052;-67
2024/01/15 00:14:48;;;;;;;0.60;0.60;;;;;;;-0.45;98.26;97076.78;5108442;28;20016;-67
2024/01/15 00:17:13;;;;;;;0.70;0.70;;;;;;;-0.41;97.93;97069.06;5108242;28;20020;-67
2024/01/15 00:19:39;;;;;;;0.60;0.60;;;;;;;-0.41;97.95;97073.31;5106958;28;20028;-68
2024/01/15 00:22:04;;;;;;;0.98;0.98;;;;;;;-0.45;97.99;97069.16;5108342;28;20024;-67
2024/01/15 00:24:30;;;;;;;1.70;1.60;;;;;;;-0.50;97.83;97066.69;5108270;28;20148;-66
2024/01/15 00:26:55;;;;;;;2.22;1.35;;;;;;;-0.54;97.78;97052.31;5106696;28;20091;-67
2024/01/15 00:29:21;;;;;;;0.60;0.60;;;;;;;-0.58;97.97;97054.09;5107985;28;20020;-66
2024/01/15 00:31:46;;;;;;;1.33;1.00;;;;;;;-0.61;97.83;97061.78;5107969;28;20024;-67
2024/01/15 00:34:11;;;;;;;8.50;2.22;;;;;;;-0.70;97.89;97055.13;5106620;28;20023;-66
2024/01/15 00:36:37;;;;;;;3.50;1.17;;;;;;;-0.72;97.80;97053.47;5107992;28;20048;-67
2024/01/15 00:39:04;;;;;;;0.50;0.50;;;;;;;-0.79;97.64;97043.41;5107717;28;20020;-67
2024/01/15 00:41:30;;;;;;;3.55;1.33;;;;;;;-0.83;97.69;97041.75;5108238;28;20046;-66
2024/01/15 00:43:56;;;;;;;1.52;1.30;;;;;;;-0.84;97.81;97040.06;5107732;28;20107;-67
2024/01/15 00:46:21;;;;;;;0.40;0.40;;;;;;;-0.96;97.78;97020.75;5107835;28;20436;-67
2024/01/15 00:48:47;;;;;;;1.02;1.00;;;;;;;-0.93;97.43;97035.16;5107823;28;20016;-66
2024/01/15 00:51:12;;;;;;;1.17;1.02;;;;;;;-0.94;97.64;97041.13;5107526;28;20020;-66
2024/01/15 00:53:38;;;;;;;1.50;1.40;;;;;;;-1.02;97.54;97023.38;5106316;28;20110;-66
2024/01/15 00:56:03;;;;;;;1.65;1.05;;;;;;;-1.06;97.77;97014.97;5107598;28;20026;-66
2024/01/15 00:58:28;;;;;;;0.60;0.60;;;;;;;-1.04;97.80;97023.41;5105864;28;20072;-66
2024/01/15 01:00:55;;;;;;;0.50;0.50;;;;;;;-1.03;97.89;97027.66;5107751;28;20108;-67
2024/01/15 01:03:20;;;;;;;0.85;0.85;;;;;;;-1.04;97.67;97023.41;5107449;28;20028;-66
2024/01/15 01:05:48;;;;;;;0.80;0.80;;;;;;;-1.06;97.58;97019.22;5107423;28;20031;-66
2024/01/15 01:08:13;;;;;;;1.00;1.00;;;;;;;-1.05;97.63;97026.84;5107310;28;20020;-66
2024/01/15 01:10:38;;;;;;;1.05;1.05;;;;;;;-1.03;97.48;97032.75;5107367;28;20062;-66
2024/01/15 01:13:04;;;;;;;0.52;0.52;;;;;;;-1.08;97.42;97016.69;5107076;28;20054;-66
2024/01/15 01:15:29;;;;;;;1.15;1.15;;;;;;;-1.06;97.40;97024.31;5107225;28;20031;-66
2024/01/15 01:17:54;;;;;;;0.50;0.50;;;;;;;-1.03;97.30;97030.22;5107119;28;20021;-67
2024/01/15 01:20:20;;;;;;;1.30;1.25;;;;;;;-1.05;97.10;97025.97;5107149;28;20156;-66
2024/01/15 01:22:45;;;;;;;2.15;1.52;;;;;;;-1.09;97.12;97029.47;5107236;28;20069;-66
2024/01/15 01:25:10;;;;;;;0.50;0.50;;;;;;;-1.12;97.18;97025.25;5107007;28;20038;-66
2024/01/15 01:27:36;;;;;;;0.73;0.73;;;;;;;-1.02;97.14;97042.06;5106817;28;20016;-66
2024/01/15 01:30:01;;;;;;;0.80;0.80;;;;;;;-1.05;97.26;97028.53;5105561;28;20016;-66
2024/01/15 01:32:27;;;;;;;0.80;0.80;;;;;;;-1.06;97.52;97030.25;5107006;28;20024;-66
2024/01/15 01:34:52;;;;;;;0.82;0.82;;;;;;;-1.03;97.68;97027.66;5106363;28;20024;-66
2024/01/15 01:37:18;;;;;;;0.50;0.50;;;;;;;-0.98;97.69;97031.81;5106605;28;20028;-67
2024/01/15 01:39:43;;;;;;;1.65;1.55;;;;;;;-0.98;97.85;97022.50;5106743;28;20103;-66
2024/01/15 01:42:09;;;;;;;0.50;0.50;;;;;;;-0.98;97.65;97021.63;5105462;28;20375;-67
2024/01/15 01:44:34;;;;;;;2.05;1.95;;;;;;;-0.92;97.86;97034.25;5106488;28;20028;-67
2024/01/15 01:47:00;;;;;;;0.60;0.60;;;;;;;-0.95;97.84;97036.88;5106539;28;20067;-67
2024/01/15 01:49:27;;;;;;;0.40;0.40;;;;;;;-0.91;97.88;97038.50;5106558;28;20156;-67
2024/01/15 01:51:56;;;;;;;0.77;0.77;;;;;;;-0.93;97.90;97035.16;5106447;28;20020;-67
2024/01/15 01:54:22;;;;;;;0.60;0.60;;;;;;;-0.95;98.13;97027.53;5105151;28;20020;-66
2024/01/15 01:56:48;;;;;;;0.50;0.50;;;;;;;-0.97;98.03;97024.16;5105153;28;20099;-66
2024/01/15 01:59:14;;;;;;;0.93;0.93;;;;;;;-0.89;98.08;97031.66;5106051;28;20048;-67
2024/01/15 02:01:40;;;;;;;0.43;0.43;;;;;;;-0.88;98.25;97034.19;5105107;28;20031;-67
2024/01/15 02:04:06;;;;;;;0.70;0.70;;;;;;;-0.90;97.98;97035.94;5106247;28;20016;-67
2024/01/15 02:06:31;;;;;;;0.50;0.50;;;;;;;-0.96;97.78;97037.75;5105118;28;20024;-66
2024/01/15 02:08:57;;;;;;;0.60;0.60;;;;;;;-0.97;97.53;97030.94;5106167;28;20582;-67
2024/01/15 02:11:23;;;;;;;0.60;0.60;;;;;;;-1.18;95.98;97055.91;5106219;28;20472;-68
2024/01/15 02:13:49;;;;;;;0.60;0.60;;;;;;;-1.47;94.46;97016.47;5105999;28;20028;-67
2024/01/15 02:16:14;;;;;;;0.50;0.50;;;;;;;-1.78;94.39;97017.72;5106215;28;20084;-67
2024/01/15 02:18:43;;;;;;;0.82;0.60;;;;;;;-1.98;94.36;97072.22;5104669;28;20045;-66
2024/01/15 02:21:10;;;;;;;0.93;0.65;;;;;;;-2.09;94.30;97061.34;5105991;28;20028;-67
2024/01/15 02:23:37;;;;;;;0.50;0.50;;;;;;;-2.27;94.45;97064.06;5106027;28;20044;-67
2024/01/15 02:26:03;;;;;;;0.52;0.52;;;;;;;-2.41;94.18;97060.84;5105850;28;20016;-67
2024/01/15 02:28:29;;;;;;;0.40;0.40;;;;;;;-2.52;94.03;97082.09;5105934;28;20028;-68
2024/01/15 02:30:54;;;;;;;0.40;0.40;;;;;;;-2.69;93.56;97081.41;5104698;28;20049;-66
2024/01/15 02:33:19;;;;;;;0.50;0.50;;;;;;;-2.82;93.77;97076.44;5105756;28;20467;-67
2024/01/15 02:35:46;;;;;;;0.50;0.50;;;;;;;-2.87;93.73;97062.94;5104643;28;20034;-67
2024/01/15 02:38:12;;;;;;;0.90;0.52;;;;;;;-2.93;93.72;97098.53;5105785;28;20020;-67
2024/01/15 02:40:38;;;;;;;0.50;0.50;;;;;;;-3.04;93.51;97080.84;5106004;28;20024;-67
2024/01/15 02:43:04;;;;;;;0.50;0.50;;;;;;;-3.09;93.19;97097.78;5105800;28;20024;-68
2024/01/15 02:45:29;;;;;;;0.40;0.40;;;;;;;-3.16;93.27;97100.38;5104800;28;20030;-67
2024/01/15 02:47:55;;;;;;;0.57;0.57;;;;;;;-3.21;93.65;97079.25;5108603;28;20088;-68
2024/01/15 02:50:20;;;;;;;0.50;0.50;;;;;;;-3.27;93.54;97104.69;5109991;28;20028;-68
2024/01/15 02:52:46;;;;;;;0.60;0.60;;;;;;;-3.32;93.66;97114.03;5110115;28;20024;-68
2024/01/15 02:55:11;;;;;;;0.50;0.50;;;;;;;-3.43;94.04;97120.00;5109936;28;20028;-67
2024/01/15 02:57:36;;;;;;;0.45;0.45;;;;;;;-3.43;93.99;97103.91;5108544;28;20027;-67
2024/01/15 03:00:03;;;;;;;0.50;0.50;;;;;;;-3.53;93.84;97110.75;5109856;28;20043;-68
2024/01/15 03:02:28;;;;;;;0.50;0.50;;;;;;;-3.53;94.22;97131.88;5109899;28;20107;-69
2024/01/15 03:04:54;;;;;;;0.60;0.60;;;;;;;-3.59;94.07;97104.00;5109771;28;20103;-68
2024/01/15 03:07:19;;;;;;;0.50;0.50;;;;;;;-3.58;94.14;97138.69;5109899;28;20028;-68
2024/01/15 03:09:44;;;;;;;0.60;0.60;;;;;;;-3.64;94.06;97121.78;5109797;28;20051;-67
2024/01/15 03:12:11;;;;;;;0.40;0.40;;;;;;;-3.63;93.77;97145.47;5109772;28;20376;-68
2024/01/15 03:14:36;;;;;;;0.90;0.85;;;;;;;-3.65;93.93;97152.22;5109474;28;20027;-66
2024/01/15 03:17:02;;;;;;;0.57;0.57;;;;;;;-3.70;94.28;97167.44;5109634;28;20048;-67
2024/01/15 03:19:27;;;;;;;0.60;0.60;;;;;;;-3.63;93.85;97150.53;5109373;28;20024;-68
2024/01/15 03:21:53;;;;;;;0.50;0.50;;;;;;;-3.70;93.59;97159.00;5109436;28;20027;-69
2024/01/15 03:24:18;;;;;;;0.63;0.63;;;;;;;-3.80;93.92;97161.56;5109408;28;20028;-70
2024/01/15 03:26:44;;;;;;;0.80;0.80;;;;;;;-3.76;93.84;97158.19;5109326;28;20479;-68
2024/01/15 03:29:09;;;;;;;0.85;0.85;;;;;;;-3.82;93.83;97165.81;5109290;28;20304;-68
2024/01/15 03:31:34;;;;;;;0.57;0.57;;;;;;;-3.80;93.72;97175.94;5109285;28;20020;-68
2024/01/15 03:34:00;;;;;;;0.50;0.50;;;;;;;-3.81;93.75;97175.09;5109208;28;20027;-67
2024/01/15 03:36:25;;;;;;;0.50;0.50;;;;;;;-3.87;93.83;97185.25;5107919;28;20047;-67
2024/01/15 03:38:51;;;;;;;0.50;0.50;;;;;;;-3.85;93.43;97188.63;5108996;28;20059;-67
2024/01/15 03:41:16;;;;;;;0.60;0.60;;;;;;;-3.90;92.87;97143.00;5109068;28;20500;-67
2024/01/15 03:43:42;;;;;;;0.50;0.50;;;;;;;-3.93;92.39;97185.28;5109015;28;20050;-68
2024/01/15 03:46:07;;;;;;;0.50;0.50;;;;;;;-4.03;93.05;97210.63;5109175;28;20028;-68
2024/01/15 03:48:32;;;;;;;0.65;0.65;;;;;;;-4.19;93.24;97184.47;5108908;28;20031;-67
2024/01/15 03:50:58;;;;;;;0.60;0.60;;;;;;;-4.08;93.18;97203.88;5108927;28;20051;-67
2024/01/15 03:53:23;;;;;;;0.50;0.50;;;;;;;-4.12;93.08;97206.41;5108731;28;20016;-68
2024/01/15 03:55:49;;;;;;;0.40;0.40;;;;;;;-4.10;93.09;97219.06;5107526;28;20024;-68
2024/01/15 03:58:15;;;;;;;0.65;0.65;;;;;;;-4.03;92.80;97200.50;5107857;28;20105;-68
2024/01/15 04:00:40;;;;;;;0.50;0.50;;;;;;;-4.09;92.86;97230.91;5108526;28;20088;-68
2024/01/15 04:03:06;;;;;;;0.73;0.70;;;;;;;-4.11;92.86;97223.31;5108561;28;20024;-67
2024/01/15 04:05:31;;;;;;;0.52;0.52;;;;;;;-4.09;92.48;97245.28;5108393;28;20046;-67
2024/01/15 04:07:57;;;;;;;0.65;0.65;;;;;;;-4.15;92.60;97246.94;5108659;28;20047;-67
2024/01/15 04:10:22;;;;;;;0.50;0.50;;;;;;;-4.18;92.17;97230.91;5108584;28;20484;-67
2024/01/15 04:12:47;;;;;;;0.50;0.50;;;;;;;-4.24;92.35;97262.16;5108341;28;20198;-68
2024/01/15 04:15:13;;;;;;;0.60;0.60;;;;;;;-4.23;92.28;97249.50;5106907;28;20020;-68
2024/01/15 04:17:38;;;;;;;0.60;0.60;;;;;;;-4.26;92.22;97279.88;5108296;28;20050;-67
2024/01/15 04:20:04;;;;;;;0.55;0.55;;;;;;;-4.29;92.63;97269.75;5108335;28;20016;-67
2024/01/15 04:22:30;;;;;;;1.80;1.70;;;;;;;-4.29;92.17;97267.22;5108420;28;20028;-68
2024/01/15 04:24:55;;;;;;;0.50;0.50;;;;;;;-4.33;92.01;97265.53;5106956;28;20498;-68
2024/01/15 04:27:21;;;;;;;0.73;0.73;;;;;;;-4.27;90.94;97290.03;5108064;28;20083;-68
2024/01/15 04:29:46;;;;;;;0.50;0.50;;;;;;;-4.38;91.35;97265.50;5108158;28;20023;-68
2024/01/15 04:32:12;;;;;;;0.60;0.60;;;;;;;-4.28;91.07;97289.16;5106999;28;20023;-67
2024/01/15 04:34:37;;;;;;;4.00;0.70;;;;;;;-4.40;91.30;97279.03;5107993;28;20023;-67
2024/01/15 04:37:02;;;;;;;0.50;0.50;;;;;;;-4.41;90.94;97306.03;5108085;28;20051;-68
2024/01/15 04:39:28;;;;;;;0.60;0.60;;;;;;;-4.33;89.96;97303.53;5107942;28;20020;-67
2024/01/15 04:41:53;;;;;;;0.60;0.60;;;;;;;-4.42;90.46;97313.63;5108050;28;20035;-68
2024/01/15 04:44:19;;;;;;;0.50;0.50;;;;;;;-4.39;90.69;97329.69;5107793;28;20083;-68
2024/01/15 04:46:44;;;;;;;0.50;0.50;;;;;;;-4.42;90.15;97331.34;5106494;28;20066;-68
2024/01/15 04:49:10;;;;;;;0.43;0.43;;;;;;;-4.43;89.85;97344.88;5107765;28;20012;-68
2024/01/15 04:51:36;;;;;;;1.42;0.82;;;;;;;-4.41;89.49;97348.25;5107740;28;20024;-69
2024/01/15 04:54:01;;;;;;;0.60;0.60;;;;;;;-4.49;89.42;97346.53;5107679;28;20020;-69
2024/01/15 04:56:27;;;;;;;0.60;0.60;;;;;;;-4.48;89.07;97350.78;5107670;28;20020;-69
2024/01/15 04:58:52;;;;;;;0.50;0.50;;;;;;;-4.48;88.47;97362.59;5107224;28;20176;-68
2024/01/15 05:01:18;;;;;;;0.50;0.50;;;;;;;-4.52;88.80;97388.75;5107462;28;20020;-67
2024/01/15 05:03:43;;;;;;;0.60;0.60;;;;;;;-4.53;88.49;97366.78;5107317;28;20020;-68
2024/01/15 05:06:09;;;;;;;1.10;1.02;;;;;;;-4.55;88.24;97365.97;5107514;28;20024;-69
2024/01/15 05:08:34;;;;;;;0.50;0.50;;;;;;;-4.47;87.64;97382.00;5105208;28;20044;-69
2024/01/15 05:10:59;;;;;;;0.50;0.50;;;;;;;-4.53;87.76;97392.13;5107379;28;20106;-68
2024/01/15 05:13:25;;;;;;;0.60;0.60;;;;;;;-4.52;87.60;97366.78;5107246;28;20073;-70
2024/01/15 05:15:50;;;;;;;0.70;0.70;;;;;;;-4.50;87.40;97389.59;5107249;28;20030;-68
2024/01/15 05:18:16;;;;;;;0.60;0.60;;;;;;;-4.51;87.47;97386.22;5105823;28;20047;-69
2024/01/15 05:20:42;;;;;;;0.50;0.50;;;;;;;-4.52;87.11;97407.31;5107251;28;20024;-69
2024/01/15 05:23:07;;;;;;;1.10;1.02;;;;;;;-4.56;86.93;97422.50;5105838;28;20031;-69
2024/01/15 05:25:33;;;;;;;2.00;1.85;;;;;;;-4.54;86.73;97415.75;5105782;28;20061;-70
2024/01/15 05:27:58;;;;;;;0.60;0.60;;;;;;;-4.57;86.95;97424.19;5106910;28;20047;-68
2024/01/15 05:30:24;;;;;;;0.50;0.50;;;;;;;-4.54;87.18;97434.34;5107027;28;20020;-69
2024/01/15 05:32:49;;;;;;;0.55;0.55;;;;;;;-4.58;86.80;97435.16;5105550;28;20455;-68
2024/01/15 05:35:14;;;;;;;0.60;0.60;;;;;;;-4.62;87.10;97403.88;5105690;28;20020;-69
2024/01/15 05:37:45;;;;;;;0.60;0.60;;;;;;;-4.63;86.80;97437.66;5105509;28;20028;-68
2024/01/15 05:40:11;;;;;;;0.60;0.60;;;;;;;-4.75;86.87;97451.13;5106557;28;20024;-69
2024/01/15 05:42:36;;;;;;;0.70;0.70;;;;;;;-4.71;86.91;97451.13;5106415;28;20027;-68
2024/01/15 05:45:04;;;;;;;0.50;0.50;;;;;;;-4.71;86.90;97458.72;5106829;28;20024;-69
2024/01/15 05:47:29;;;;;;;0.70;0.70;;;;;;;-4.66;86.67;97472.22;5106587;28;20463;-68
2024/01/15 05:49:55;;;;;;;0.50;0.50;;;;;;;-4.78;86.41;97473.88;5106544;28;20032;-68
2024/01/15 05:52:21;;;;;;;0.60;0.60;;;;;;;-4.81;86.49;97488.19;5106526;28;20314;-69
2024/01/15 05:54:47;;;;;;;0.60;0.60;;;;;;;-4.85;86.59;97502.50;5106579;28;20017;-69
2024/01/15 05:57:12;;;;;;;0.70;0.70;;;;;;;-4.87;86.71;97478.88;5106495;28;20479;-70
2024/01/15 05:59:38;;;;;;;0.60;0.60;;;;;;;-4.90;86.52;97511.75;5106241;28;20074;-69
2024/01/15 06:02:03;;;;;;;0.60;0.60;;;;;;;-4.91;86.59;97512.59;5106447;28;20083;-70
2024/01/15 06:04:29;;;;;;;0.60;0.60;;;;;;;-4.90;86.31;97534.53;5104965;28;20035;-69
2024/01/15 06:06:54;;;;;;;0.50;0.50;;;;;;;-4.91;86.62;97538.75;5105056;28;20062;-69
2024/01/15 06:09:19;;;;;;;0.50;0.50;;;;;;;-4.89;86.17;97556.47;5106362;28;20027;-69
2024/01/15 06:11:45;;;;;;;0.52;0.52;;;;;;;-4.94;86.35;97568.25;5106232;28;20020;-68
2024/01/15 06:14:10;;;;;;;0.60;0.60;;;;;;;-4.97;85.42;97553.91;5106204;28;20024;-69
2024/01/15 06:16:35;;;;;;;0.60;0.60;;;;;;;-5.04;85.60;97558.06;5106061;28;20032;-70
2024/01/15 06:19:01;;;;;;;0.60;0.60;;;;;;;-4.98;85.53;97578.34;5104716;28;20028;-69
2024/01/15 06:21:26;;;;;;;0.60;0.60;;;;;;;-5.00;84.98;97585.06;5105689;28;20028;-69
2024/01/15 06:23:52;;;;;;;1.63;1.55;;;;;;;-5.01;84.54;97549.63;5106025;28;20024;-69
2024/01/15 06:26:17;;;;;;;0.70;0.70;;;;;;;-5.06;84.24;97612.84;5106672;28;20016;-69
2024/01/15 06:28:42;;;;;;;0.60;0.60;;;;;;;-5.12;84.49;97592.56;5105783;28;20043;-68
2024/01/15 06:31:08;;;;;;;0.60;0.60;;;;;;;-5.19;84.64;97614.41;5105891;28;20016;-69
2024/01/15 06:33:33;;;;;;;0.50;0.50;;;;;;;-5.23;84.32;97617.75;5105692;28;20032;-70
2024/01/15 06:35:58;;;;;;;0.60;0.60;;;;;;;-5.19;84.00;97627.06;5105915;28;20028;-69
2024/01/15 06:38:25;;;;;;;0.95;0.60;;;;;;;-5.24;83.95;97641.38;5105885;28;20031;-69
2024/01/15 06:40:51;;;;;;;0.70;0.70;;;;;;;-5.26;84.13;97646.41;5105938;28;20070;-69
2024/01/15 06:43:17;;;;;;;0.60;0.60;;;;;;;-5.33;84.19;97657.28;5105816;28;20020;-69
2024/01/15 06:45:43;;;;;;;0.60;0.60;;;;;;;-5.36;84.14;97662.28;5104668;28;20095;-69
2024/01/15 06:48:09;;;;;;;0.60;0.60;;;;;;;-5.42;84.02;97658.03;5105960;28;20016;-69
2024/01/15 06:50:34;;;;;;;0.60;0.60;;;;;;;-5.35;83.54;97657.25;5105763;28;20035;-69
2024/01/15 06:52:59;;;;;;;0.60;0.60;;;;;;;-5.41;83.58;97659.72;5105798;28;20028;-68
2024/01/15 06:55:25;;;;;;;0.60;0.60;;;;;;;-5.54;83.70;97700.88;5105932;28;20047;-69
2024/01/15 06:57:51;;;;;;;0.80;0.80;;;;;;;-5.75;83.96;97671.97;5104095;28;20024;-68
2024/01/15 07:00:17;;;;;;;0.60;0.60;;;;;;;-5.62;84.21;97718.44;5105770;28;20092;-70
2024/01/15 07:02:43;;;;;;;0.60;0.60;;;;;;;-5.58;84.23;97722.72;5104278;28;20024;-69
2024/01/15 07:05:08;;;;;;;0.60;0.60;;;;;;;-5.79;83.76;97698.88;5106218;28;20024;-70
2024/01/15 07:07:34;;;;;;;0.43;0.43;;;;;;;-5.59;83.50;97705.84;5105653;28;20026;-69
2024/01/15 07:09:59;;;;;;;0.60;0.60;;;;;;;-5.79;83.55;97693.81;5105560;28;20052;-69
2024/01/15 07:12:24;;;;;;;0.60;0.60;;;;;;;-5.77;83.72;97746.91;5105667;28;20040;-70
2024/01/15 07:14:50;;;;;;;0.70;0.70;;;;;;;-5.75;83.83;97748.63;5105590;28;20028;-70
2024/01/15 07:17:15;;;;;;;0.50;0.50;;;;;;;-5.85;83.78;97744.28;5105613;28;20548;-70
2024/01/15 07:19:41;;;;;;;2.25;2.05;;;;;;;-5.85;83.73;97760.28;5105570;28;20035;-70
2024/01/15 07:22:06;;;;;;;0.60;0.60;;;;;;;-5.88;83.49;97767.81;5105618;28;20529;-70
2024/01/15 07:24:34;;;;;;;0.60;0.60;;;;;;;-5.92;83.52;97780.38;5105514;28;20146;-68
2024/01/15 07:26:59;;;;;;;0.98;0.98;;;;;;;-5.95;83.54;97772.75;5104076;28;20020;-70
2024/01/15 07:29:24;;;;;;;0.65;0.65;;;;;;;-5.99;83.33;97787.03;5105179;28;20023;-71
2024/01/15 07:31:51;;;;;;;0.70;0.70;;;;;;;-5.92;82.92;97742.47;5106201;28;20024;-70
2024/01/15 07:34:17;;;;;;;0.60;0.60;;;;;;;-5.95;82.53;97792.97;5109328;28;20027;-70
2024/01/15 07:36:44;;;;;;;0.60;0.60;;;;;;;-6.03;82.67;97806.34;5109149;28;20359;-69
2024/01/15 07:39:09;;;;;;;0.70;0.70;;;;;;;-6.05;82.64;97808.00;5107711;28;20016;-70
2024/01/15 07:41:35;;;;;;;0.60;0.60;;;;;;;-6.08;82.59;97817.22;5109262;28;20039;-70
2024/01/15 07:44:00;;;;;;;0.60;0.60;;;;;;;-6.11;82.30;97781.00;5108914;28;20024;-70
2024/01/15 07:46:25;;;;;;;0.57;0.57;;;;;;;-6.15;82.34;97816.28;5109043;28;20035;-70
2024/01/15 07:48:56;;;;;;;0.60;0.60;;;;;;;-6.15;82.33;97839.00;5108951;28;20024;-69
2024/01/15 07:51:24;;;;;;;1.20;0.77;;;;;;;-6.27;82.57;97827.88;5108884;28;20088;-70
2024/01/15 07:53:52;;;;;;;0.60;0.60;;;;;;;-6.22;82.63;97838.91;5108960;28;20031;-70
2024/01/15 07:56:18;;;;;;;0.60;0.60;;;;;;;-6.25;82.60;97853.16;5108849;28;20483;-70
2024/01/15 07:58:43;;;;;;;0.57;0.57;;;;;;;-6.24;82.56;97870.00;5108361;28;20063;-69
2024/01/15 08:01:08;;;;;;;0.70;0.70;;;;;;;-6.32;82.82;97864.81;5108796;28;20024;-70
2024/01/15 08:03:34;;;;;;;0.63;0.63;;;;;;;-6.28;82.74;97866.59;5108714;28;20437;-71
2024/01/15 08:05:59;;;;;;;0.60;0.60;;;;;;;-6.24;82.42;97883.47;5108844;28;20380;-69
2024/01/15 08:08:28;;;;;;;0.70;0.70;;;;;;;-6.26;82.42;97872.50;5108676;28;20046;-70
2024/01/15 08:10:54;;;;;;;0.50;0.50;;;;;;;-6.37;82.31;97873.97;5107345;28;20024;-70
2024/01/15 08:13:20;;;;;;;0.60;0.60;;;;;;;-6.31;82.27;97914.47;5108525;28;20028;-70
2024/01/15 08:15:45;;;;;;;0.60;0.60;;;;;;;-6.41;82.62;97895.81;5108386;28;20020;-70
2024/01/15 08:18:11;;;;;;;1.00;1.00;;;;;;;-6.38;82.60;97900.91;5107978;28;20032;-69
2024/01/15 08:20:37;;;;;;;0.60;0.60;;;;;;;-6.43;82.60;97889.84;5108260;28;20028;-70
2024/01/15 08:23:02;;;;;;;0.70;0.70;;;;;;;-6.57;82.68;97893.78;5106914;28;20115;-70
2024/01/15 08:25:28;;;;;;;0.70;0.70;;;;;;;-6.62;82.83;97886.13;5108110;28;20093;-70
2024/01/15 08:27:53;;;;;;;0.60;0.60;;;;;;;-6.51;82.85;97914.97;5106793;28;20111;-70
2024/01/15 08:30:20;;;;;;;0.60;0.60;;;;;;;-6.53;82.90;97915.75;5108254;28;20024;-70
2024/01/15 08:32:45;;;;;;;0.60;0.60;;;;;;;-6.56;83.10;97926.63;5108109;28;20052;-70
2024/01/15 08:35:11;;;;;;;0.60;0.60;;;;;;;-6.49;83.01;97933.53;5106712;28;20065;-70
2024/01/15 08:37:37;;;;;;;0.60;0.60;;;;;;;-6.43;82.78;97934.44;5107847;28;20361;-70
2024/01/15 08:40:03;;;;;;;0.70;0.70;;;;;;;-6.45;82.58;97947.03;5106428;28;20031;-70
2024/01/15 08:42:29;;;;;;;0.60;0.60;;;;;;;-6.47;82.76;97954.59;5107855;28;20081;-70
2024/01/15 08:44:54;;;;;;;0.63;0.63;;;;;;;-6.52;82.78;97933.47;5107688;28;20418;-70
2024/01/15 08:47:19;;;;;;;0.57;0.57;;;;;;;-6.54;83.03;97947.72;5107780;28;20056;-70
2024/01/15 08:49:46;;;;;;;0.50;0.50;;;;;;;-6.46;83.19;97957.97;5107959;28;20026;-70
2024/01/15 08:52:11;;;;;;;1.27;0.60;;;;;;;-6.45;83.21;97954.63;5107692;28;20027;-71
2024/01/15 08:54:37;;;;;;;0.50;0.50;;;;;;;-6.45;83.25;97964.72;5107400;28;20395;-71
2024/01/15 08:57:02;;;;;;;0.60;0.60;;;;;;;-6.40;83.01;97957.22;5106387;28;20045;-70
2024/01/15 08:59:28;;;;;;;0.60;0.60;;;;;;;-6.42;82.96;97969.00;5106065;28;20055;-71
2024/01/15 09:01:54;;;;;;;0.63;0.63;;;;;;;-6.41;82.81;97976.59;5107565;28;20420;-70
2024/01/15 09:04:19;;;;;;;1.35;1.25;;;;;;;-6.39;83.09;97984.19;5107570;28;20023;-70
2024/01/15 09:06:49;;;;;;;0.57;0.57;;;;;;;-6.32;83.00;97975.06;5107496;28;20023;-70
2024/01/15 09:09:14;;;;;;;0.50;0.50;;;;;;;-6.30;82.92;97989.44;5107469;28;20028;-70
2024/01/15 09:11:40;;;;;;;0.60;0.60;;;;;;;-6.26;82.81;97995.41;5107429;28;20035;-70
2024/01/15 09:14:06;;;;;;;0.60;0.60;;;;;;;-6.27;82.82;98003.78;5107180;28;20027;-71
2024/01/15 09:16:31;;;;;;;0.70;0.70;;;;;;;-6.25;83.02;98008.06;5107358;28;20027;-70
2024/01/15 09:18:57;;;;;;;0.60;0.60;;;;;;;-6.18;82.88;98023.34;5107212;28;20450;-70
2024/01/15 09:21:24;;;;;;;0.60;0.60;;;;;;;-6.12;82.79;97995.69;5107093;28;20016;-70
2024/01/15 09:23:50;;;;;;;0.60;0.60;;;;;;;-6.10;82.74;98011.69;5107411;28;20052;-70
2024/01/15 09:26:15;;;;;;;0.57;0.57;;;;;;;-6.06;82.70;98026.13;5107088;28;20089;-70
2024/01/15 09:28:40;;;;;;;0.60;0.60;;;;;;;-6.15;82.36;98003.19;5105596;28;20087;-70
2024/01/15 09:31:06;;;;;;;0.60;0.60;;;;;;;-6.13;82.56;98029.31;5106999;28;20016;-69
2024/01/15 09:33:31;;;;;;;0.80;0.80;;;;;;;-6.14;82.27;98036.06;5107016;28;20039;-70
2024/01/15 09:35:57;;;;;;;0.70;0.70;;;;;;;-6.14;81.84;98028.47;5106984;28;20020;-70
2024/01/15 09:38:23;;;;;;;0.60;0.60;;;;;;;-6.07;81.29;98051.34;5106816;28;20024;-70
2024/01/15 09:40:50;;;;;;;0.60;0.60;;;;;;;-6.12;81.47;98051.25;5106973;28;20047;-70
2024/01/15 09:43:17;;;;;;;0.80;0.80;;;;;;;-5.97;80.91;98033.84;5106798;28;20024;-71
2024/01/15 09:45:43;;;;;;;2.55;0.93;;;;;;;-6.03;80.98;98053.94;5106844;28;20031;-71
2024/01/15 09:48:09;;;;;;;0.60;0.60;;;;;;;-6.01;81.48;98053.97;5106775;28;20016;-70
2024/01/15 09:50:34;;;;;;;0.60;0.60;;;;;;;-6.08;81.17;98015.13;5106680;28;20069;-70
2024/01/15 09:53:00;;;;;;;1.00;1.00;;;;;;;-6.00;81.13;98061.56;5106631;28;20015;-70
2024/01/15 09:55:28;;;;;;;0.60;0.60;;;;;;;-5.97;81.50;98056.56;5106079;28;20020;-70
2024/01/15 09:57:56;;;;;;;0.60;0.60;;;;;;;-5.92;81.48;98060.84;5105951;28;20031;-70
2024/01/15 10:00:23;;;;;;;0.60;0.60;;;;;;;-5.86;81.39;98055.91;5106550;28;20044;-70
2024/01/15 10:02:49;;;;;;;0.60;0.60;;;;;;;-5.89;81.34;98049.16;5106408;28;20067;-70
2024/01/15 10:05:14;;;;;;;1.40;1.35;;;;;;;-5.94;81.61;98045.66;5106412;28;20024;-70
2024/01/15 10:07:40;;;;;;;0.90;0.90;;;;;;;-5.80;81.56;98083.88;5106426;28;20446;-70
2024/01/15 10:10:07;;;;;;;0.60;0.60;;;;;;;-5.74;81.13;98075.53;5104886;28;20023;-70
2024/01/15 10:12:33;;;;;;;0.57;0.57;;;;;;;-5.75;81.00;98068.78;5106348;28;20115;-70
2024/01/15 10:14:58;;;;;;;0.60;0.60;;;;;;;-5.76;81.19;98093.22;5106119;28;20042;-70
2024/01/15 10:17:25;;;;;;;0.60;0.60;;;;;;;-5.76;80.81;98093.22;5104791;28;20054;-70
2024/01/15 10:19:50;;;;;;;0.60;0.60;;;;;;;-5.88;81.04;98065.16;5106168;28;20032;-70
2024/01/15 10:22:19;;;;;;;0.60;0.60;;;;;;;-5.83;81.04;98088.84;5106295;28;20026;-70
2024/01/15 10:24:46;;;;;;;0.70;0.70;;;;;;;-5.77;81.05;98086.47;5106128;28;20098;-70
2024/01/15 10:27:12;;;;;;;0.60;0.60;;;;;;;-5.78;81.12;98083.91;5106121;28;20480;-70
2024/01/15 10:29:37;;;;;;;0.60;0.60;;;;;;;-5.63;80.68;98101.03;5106015;28;20079;-70
2024/01/15 10:32:07;;;;;;;0.60;0.60;;;;;;;-5.62;80.30;98107.78;5106146;28;20024;-70
2024/01/15 10:34:32;;;;;;;0.90;0.90;;;;;;;-5.60;80.23;98118.78;5105996;28;20058;-70
2024/01/15 10:36:58;;;;;;;0.60;0.60;;;;;;;-5.61;80.45;98114.56;5106021;28;20020;-70
2024/01/15 10:39:24;;;;;;;0.70;0.70;;;;;;;-5.56;80.29;98117.16;5105982;28;20016;-70
2024/01/15 10:41:53;;;;;;;0.70;0.70;;;;;;;-5.63;80.15;98118.72;5104691;28;20028;-70
2024/01/15 10:44:19;;;;;;;1.88;0.80;;;;;;;-5.70;80.11;98116.91;5105707;28;20026;-70
2024/01/15 10:46:45;;;;;;;0.60;0.60;;;;;;;-5.66;79.53;98132.16;5104526;28;20024;-70
2024/01/15 10:49:11;;;;;;;0.60;0.60;;;;;;;-5.69;79.65;98137.16;5104635;28;20020;-70
2024/01/15 10:51:37;;;;;;;0.60;0.60;;;;;;;-5.75;79.13;98142.94;5105952;28;20040;-71
2024/01/15 10:54:03;;;;;;;0.60;0.60;;;;;;;-5.85;79.20;98146.09;5105874;28;20049;-70
2024/01/15 10:56:32;;;;;;;0.60;0.60;;;;;;;-5.93;79.36;98140.03;5105843;28;20028;-71
2024/01/15 10:58:57;;;;;;;0.68;0.68;;;;;;;-5.88;79.20;98148.56;5087448;28;20060;-70
2024/01/15 11:01:23;;;;;;;0.63;0.63;;;;;;;-5.98;79.14;98155.09;5105668;28;20024;-70
2024/01/15 11:03:49;;;;;;;0.60;0.60;;;;;;;-6.06;79.68;98146.50;5105925;28;20054;-71
2024/01/15 11:06:21;;;;;;;0.70;0.70;;;;;;;-5.96;80.03;98161.03;5104757;28;20091;-70
2024/01/15 11:08:51;;;;;;;0.90;0.90;;;;;;;-5.94;79.35;98161.91;5109736;28;20016;-70
2024/01/15 11:11:17;;;;;;;2.55;2.45;;;;;;;-6.02;79.29;98161.75;5109506;28;20024;-69
2024/01/15 11:13:44;;;;;;;0.60;0.60;;;;;;;-6.00;78.91;98180.31;5109578;28;20031;-70
2024/01/15 11:16:13;;;;;;;0.60;0.60;;;;;;;-6.05;79.21;98155.81;5109625;28;20043;-70
2024/01/15 11:18:57;;;;;;;0.70;0.70;;;;;;;-6.03;78.88;98185.31;5109573;28;20020;-71
2024/01/15 11:21:25;;;;;;;0.70;0.70;;;;;;;-6.14;78.54;98182.56;5108135;28;20055;-70
2024/01/15 11:23:58;;;;;;;0.60;0.60;;;;;;;-6.17;78.80;98200.19;5109476;28;20027;-70
2024/01/15 11:26:36;;;;;;;0.60;0.60;;;;;;;-6.22;79.09;98200.09;5109492;28;20028;-69